createdAt,value
2023-02-03T00:00:11.567Z,13.05
2023-02-03T00:05:19.067Z,13.88
2023-02-03T00:10:24.893Z,11.85
2023-02-03T00:15:34.559Z,12.85
2023-02-03T00:20:39.460Z,6.40
2023-02-03T00:25:44.319Z,8.35
2023-02-03T00:30:54.475Z,7.10
2023-02-03T00:35:59.415Z,4.68
2023-02-03T00:41:04.391Z,6.50
2023-02-03T00:46:13.242Z,5.07
2023-02-03T00:51:18.020Z,13.88
2023-02-03T00:56:22.876Z,4.40
2023-02-03T01:01:30.414Z,3.75
2023-02-03T01:06:35.221Z,7.15
2023-02-03T01:11:44.579Z,13.15
2023-02-03T01:16:52.149Z,20.67
2023-02-03T01:21:57.378Z,17.45
2023-02-03T01:27:02.171Z,14.45
2023-02-03T01:32:09.772Z,12.45
2023-02-03T01:37:17.549Z,13.73
2023-02-03T01:42:23.507Z,17.63
2023-02-03T01:47:33.147Z,17.80
2023-02-03T01:52:41.129Z,22.50
2023-02-03T01:57:51.022Z,9.23
2023-02-03T02:03:01.240Z,11.30
2023-02-03T02:08:07.129Z,10.48
2023-02-03T02:13:11.960Z,15.02
2023-02-03T02:18:25.027Z,9.85
2023-02-03T02:23:40.397Z,15.43
2023-02-03T02:28:57.959Z,10.75
2023-02-03T02:34:08.386Z,20.83
2023-02-03T02:39:16.058Z,19.08
2023-02-03T02:44:30.203Z,16.30
2023-02-03T02:56:31.334Z,26.80
2023-02-03T03:01:41.504Z,38.20
2023-02-03T03:06:48.071Z,23.30
2023-02-03T03:11:53.958Z,29.15
2023-02-03T03:17:06.199Z,47.70
2023-02-03T03:22:12.853Z,36.75
2023-02-03T03:27:21.432Z,14.75
2023-02-03T03:32:30.960Z,22.17
2023-02-03T03:37:38.343Z,22.97
2023-02-03T03:42:51.855Z,14.20
2023-02-03T03:48:00.916Z,18.30
2023-02-03T03:53:07.826Z,23.23
2023-02-03T04:03:40.817Z,32.55
2023-02-03T04:13:50.235Z,64.30
2023-02-03T04:18:57.774Z,47.30
2023-02-03T04:24:02.670Z,27.88
2023-02-03T04:29:07.739Z,40.65
2023-02-03T04:34:15.238Z,41.05
2023-02-03T04:39:20.100Z,18.52
2023-02-03T04:44:24.923Z,46.88
2023-02-03T04:49:32.358Z,31.88
2023-02-03T04:54:37.391Z,24.60
2023-02-03T04:59:42.247Z,35.20
2023-02-03T05:04:49.704Z,49.55
2023-02-03T05:09:54.583Z,29.77
2023-02-03T05:14:59.350Z,18.27
2023-02-03T05:20:06.998Z,18.75
2023-02-03T05:25:12.563Z,14.52
2023-02-03T05:30:17.431Z,7.78
2023-02-03T05:35:25.022Z,8.75
2023-02-03T05:40:42.006Z,7.32
2023-02-03T05:45:46.894Z,9.52
2023-02-03T05:50:54.544Z,6.55
2023-02-03T05:55:59.616Z,7.45
2023-02-03T06:01:05.379Z,12.05
2023-02-03T06:06:13.089Z,17.77
2023-02-03T06:11:18.011Z,13.25
2023-02-03T06:16:27.773Z,9.68
2023-02-03T06:21:35.403Z,8.50
2023-02-03T06:26:43.246Z,9.27
2023-02-03T06:31:48.243Z,5.68
2023-02-03T06:37:04.963Z,6.65
2023-02-03T06:42:09.847Z,7.20
2023-02-03T06:47:23.292Z,7.13
2023-02-03T06:52:53.426Z,7.25
2023-02-03T06:57:56.397Z,9.10
2023-02-03T07:03:04.762Z,6.75
2023-02-03T07:08:12.670Z,9.10
2023-02-03T07:13:17.672Z,9.05
2023-02-03T07:18:46.345Z,7.57
2023-02-03T07:23:56.160Z,8.60
2023-02-03T07:29:01.032Z,9.75
2023-02-03T07:34:06.646Z,7.43
2023-02-03T07:39:15.033Z,14.10
2023-02-03T07:44:19.997Z,6.07
2023-02-03T07:49:25.265Z,5.43
2023-02-03T07:54:55.509Z,7.88
2023-02-03T08:06:05.207Z,14.20
2023-02-03T08:11:30.178Z,13.18
2023-02-03T08:16:58.293Z,9.32
2023-02-03T08:22:23.069Z,10.20
2023-02-03T08:27:56.390Z,12.90
2023-02-03T08:33:03.901Z,11.63
2023-02-03T08:43:29.960Z,7.38
2023-02-03T08:48:37.368Z,8.43
2023-02-03T08:53:42.434Z,9.90
2023-02-03T08:58:50.140Z,18.70
2023-02-03T09:03:57.704Z,6.93
2023-02-03T09:09:26.879Z,8.98
2023-02-03T09:14:35.231Z,8.07
2023-02-03T09:19:42.855Z,11.15
2023-02-03T09:24:51.833Z,8.57
2023-02-03T09:29:58.886Z,8.77
2023-02-03T09:35:06.385Z,10.43
2023-02-03T09:40:13.391Z,5.15
2023-02-03T09:45:21.108Z,13.73
2023-02-03T09:50:34.848Z,6.22
2023-02-03T09:55:42.724Z,4.20
2023-02-03T10:00:49.945Z,8.68
2023-02-03T10:06:00.598Z,5.10
2023-02-03T10:11:14.493Z,9.27
2023-02-03T10:16:46.060Z,5.25
2023-02-03T10:21:55.562Z,7.57
2023-02-03T10:27:03.836Z,8.40
2023-02-03T10:32:11.643Z,5.70
2023-02-03T10:37:22.577Z,4.38
2023-02-03T10:43:01.126Z,7.45
2023-02-03T10:48:07.420Z,9.82
2023-02-03T10:53:27.070Z,7.22
2023-02-03T10:58:39.183Z,7.18
2023-02-03T11:03:45.532Z,5.50
2023-02-03T11:08:53.272Z,4.72
2023-02-03T11:14:14.482Z,8.25
2023-02-03T11:19:20.220Z,6.28
2023-02-03T11:24:26.172Z,9.95
2023-02-03T11:29:37.689Z,8.93
2023-02-03T11:34:43.166Z,8.68
2023-02-03T11:39:48.088Z,10.20
2023-02-03T11:44:58.512Z,10.85
2023-02-03T11:50:12.541Z,8.30
2023-02-03T11:55:23.395Z,10.80
2023-02-03T12:00:34.673Z,8.55
2023-02-03T12:05:43.354Z,15.00
2023-02-03T12:10:53.053Z,8.18
2023-02-03T12:16:07.845Z,10.13
2023-02-03T12:21:21.236Z,6.47
2023-02-03T12:26:29.836Z,6.43
2023-02-03T12:31:41.786Z,11.73
2023-02-03T12:36:53.712Z,8.10
2023-02-03T12:42:02.001Z,8.55
2023-02-03T12:47:29.625Z,8.27
2023-02-03T12:52:38.768Z,5.70
2023-02-03T12:57:48.631Z,10.25
2023-02-03T13:03:05.214Z,8.55
2023-02-03T13:08:14.726Z,7.05
2023-02-03T13:13:52.127Z,12.13
2023-02-03T13:19:07.159Z,9.68
2023-02-03T13:24:16.515Z,19.92
2023-02-03T13:29:38.220Z,10.98
2023-02-03T13:34:55.820Z,8.20
2023-02-03T13:40:21.337Z,15.65
2023-02-03T13:45:32.343Z,11.93
2023-02-03T13:50:40.326Z,35.45
2023-02-03T13:55:46.858Z,15.45
2023-02-03T14:01:29.886Z,36.10
2023-02-03T14:07:04.310Z,27.65
2023-02-03T14:12:25.492Z,23.73
2023-02-03T14:17:45.373Z,19.35
2023-02-03T14:22:52.892Z,77.17
2023-02-03T14:28:05.994Z,49.33
2023-02-03T14:33:10.952Z,24.70
2023-02-03T14:38:17.668Z,52.10
2023-02-03T14:43:36.198Z,46.53
2023-02-03T14:48:49.494Z,60.13
2023-02-03T14:54:00.435Z,44.78
2023-02-03T14:59:12.603Z,26.00
2023-02-03T15:04:25.163Z,19.70
2023-02-03T15:09:33.516Z,22.70
2023-02-03T15:14:41.142Z,21.17
2023-02-03T15:19:46.186Z,18.17
2023-02-03T15:24:51.390Z,20.27
2023-02-03T15:30:00.285Z,16.55
2023-02-03T15:35:09.153Z,19.25
2023-02-03T15:40:16.751Z,16.63
2023-02-03T15:45:26.881Z,29.85
2023-02-03T15:50:41.099Z,25.33
2023-02-03T15:56:34.339Z,129.85
2023-02-03T16:01:43.345Z,73.80
2023-02-03T16:06:49.716Z,39.58
2023-02-03T16:12:06.763Z,42.40
2023-02-03T16:17:26.694Z,31.40
2023-02-03T16:22:38.998Z,26.13
2023-02-03T16:27:44.143Z,25.70
2023-02-03T16:33:13.553Z,20.63
2023-02-03T16:38:33.690Z,16.35
2023-02-03T16:43:50.705Z,23.67
2023-02-03T16:49:18.876Z,20.88
2023-02-03T16:54:42.360Z,48.42
2023-02-03T16:59:47.291Z,15.25
2023-02-03T17:04:52.069Z,18.85
2023-02-03T17:09:59.641Z,20.70
2023-02-03T17:15:04.530Z,22.27
2023-02-03T17:20:09.899Z,22.30
2023-02-03T17:25:17.893Z,79.50
2023-02-03T17:30:22.959Z,38.97
2023-02-03T17:35:28.150Z,65.22
2023-02-03T17:56:35.980Z,34.20
2023-02-03T18:01:40.681Z,59.55
2023-02-03T18:06:46.682Z,31.83
2023-02-03T18:11:54.118Z,37.00
2023-02-03T18:16:59.223Z,27.75
2023-02-03T18:22:05.396Z,15.80
2023-02-03T18:27:17.033Z,12.38
2023-02-03T18:32:21.852Z,10.18
2023-02-03T18:37:26.697Z,10.43
2023-02-03T18:42:34.255Z,8.93
2023-02-03T18:47:39.030Z,10.93
2023-02-03T18:52:43.952Z,8.68
2023-02-03T18:57:51.342Z,9.93
2023-02-03T19:02:57.204Z,9.85
2023-02-03T19:08:02.053Z,7.25
2023-02-03T19:13:09.559Z,11.40
2023-02-03T19:18:14.319Z,9.25
2023-02-03T19:23:28.795Z,11.38
2023-02-03T19:28:42.880Z,11.70
2023-02-03T19:34:06.103Z,10.98
2023-02-03T19:39:23.131Z,9.80
2023-02-03T19:44:44.057Z,15.27
2023-02-03T19:50:08.280Z,22.85
2023-02-03T20:06:07.081Z,27.58
2023-02-03T20:11:26.675Z,17.92
2023-02-03T20:16:37.866Z,22.27
2023-02-03T20:27:08.555Z,19.87
2023-02-03T20:37:52.680Z,17.20
2023-02-03T20:48:42.517Z,20.20
2023-02-03T20:53:52.906Z,14.75
2023-02-03T20:59:12.638Z,13.52
2023-02-03T21:04:45.805Z,18.83
2023-02-03T21:09:50.617Z,21.83
2023-02-03T21:14:56.368Z,13.88
2023-02-03T21:20:04.211Z,16.73
2023-02-03T21:31:06.953Z,14.50
2023-02-03T21:47:03.718Z,30.52
2023-02-03T21:52:17.211Z,32.08
2023-02-03T21:57:31.145Z,23.42
2023-02-03T22:02:51.898Z,24.75
2023-02-03T22:19:17.795Z,15.43
2023-02-03T22:24:38.636Z,27.73
2023-02-03T22:35:02.943Z,19.30
2023-02-03T22:45:41.710Z,36.80
2023-02-03T22:51:09.732Z,21.95
2023-02-03T22:56:32.223Z,38.90
2023-02-03T23:02:13.620Z,43.55
2023-02-03T23:07:45.197Z,31.88
2023-02-03T23:12:55.779Z,21.60
2023-02-03T23:18:14.136Z,13.68
2023-02-03T23:23:33.753Z,20.35
2023-02-03T23:40:00.605Z,21.88
2023-02-03T23:45:13.997Z,17.40
2023-02-03T23:50:38.635Z,17.73
